sensor_id;sensor_type;location;lat;lon;timestamp;pressure;altitude;pressure_sealevel;temperature;humidity
48964;BME280;34776;48.180;16.420;2022-12-18T00:00:33;101394.25;;;-0.30;68.58
48964;BME280;34776;48.180;16.420;2022-12-18T00:02:59;101403.72;;;-0.37;68.75
48964;BME280;34776;48.180;16.420;2022-12-18T00:05:24;101403.63;;;-0.40;69.24
48964;BME280;34776;48.180;16.420;2022-12-18T00:07:49;101400.94;;;-0.45;69.30
48964;BME280;34776;48.180;16.420;2022-12-18T00:10:17;101405.25;;;-0.48;69.35
48964;BME280;34776;48.180;16.420;2022-12-18T00:12:43;101406.03;;;-0.52;69.28
48964;BME280;34776;48.180;16.420;2022-12-18T00:15:08;101411.16;;;-0.57;69.63
48964;BME280;34776;48.180;16.420;2022-12-18T00:17:34;101419.75;;;-0.63;69.64
48964;BME280;34776;48.180;16.420;2022-12-18T00:19:59;101421.38;;;-0.68;69.77
48964;BME280;34776;48.180;16.420;2022-12-18T00:22:24;101418.69;;;-0.72;69.90
48964;BME280;34776;48.180;16.420;2022-12-18T00:24:50;101418.59;;;-0.77;70.02
48964;BME280;34776;48.180;16.420;2022-12-18T00:27:15;101427.22;;;-0.81;70.01
48964;BME280;34776;48.180;16.420;2022-12-18T00:29:40;101422.81;;;-0.84;69.90
48964;BME280;34776;48.180;16.420;2022-12-18T00:32:06;101423.59;;;-0.88;69.93
48964;BME280;34776;48.180;16.420;2022-12-18T00:34:31;101429.63;;;-0.90;70.16
48964;BME280;34776;48.180;16.420;2022-12-18T00:36:57;101433.06;;;-0.91;70.19
48964;BME280;34776;48.180;16.420;2022-12-18T00:39:22;101430.41;;;-0.94;70.53
48964;BME280;34776;48.180;16.420;2022-12-18T00:41:47;101429.50;;;-0.96;70.18
48964;BME280;34776;48.180;16.420;2022-12-18T00:44:31;101434.63;;;-0.99;70.28
48964;BME280;34776;48.180;16.420;2022-12-18T00:46:56;101434.53;;;-1.04;70.27
48964;BME280;34776;48.180;16.420;2022-12-18T00:49:22;101429.22;;;-1.09;70.43
48964;BME280;34776;48.180;16.420;2022-12-18T00:51:48;101430.88;;;-1.12;70.57
48964;BME280;34776;48.180;16.420;2022-12-18T00:54:14;101442.13;;;-1.15;70.81
48964;BME280;34776;48.180;16.420;2022-12-18T00:56:40;101440.28;;;-1.19;70.99
48964;BME280;34776;48.180;16.420;2022-12-18T00:59:06;101438.50;;;-1.20;70.93
48964;BME280;34776;48.180;16.420;2022-12-18T01:01:31;101443.69;;;-1.23;71.09
48964;BME280;34776;48.180;16.420;2022-12-18T01:03:58;101449.72;;;-1.24;71.01
48964;BME280;34776;48.180;16.420;2022-12-18T01:06:24;101449.66;;;-1.27;71.19
48964;BME280;34776;48.180;16.420;2022-12-18T01:08:49;101452.19;;;-1.30;71.01
48964;BME280;34776;48.180;16.420;2022-12-18T01:11:17;101457.34;;;-1.33;71.35
48964;BME280;34776;48.180;16.420;2022-12-18T01:13:43;101463.31;;;-1.37;71.35
48964;BME280;34776;48.180;16.420;2022-12-18T01:16:11;101467.63;;;-1.39;71.76
48964;BME280;34776;48.180;16.420;2022-12-18T01:18:36;101465.00;;;-1.39;71.74
48964;BME280;34776;48.180;16.420;2022-12-18T01:21:07;101463.25;;;-1.40;71.76
48964;BME280;34776;48.180;16.420;2022-12-18T01:23:32;101467.56;;;-1.42;71.65
48964;BME280;34776;48.180;16.420;2022-12-18T01:25:58;101456.22;;;-1.45;71.85
48964;BME280;34776;48.180;16.420;2022-12-18T01:28:23;101463.94;;;-1.48;71.72
48964;BME280;34776;48.180;16.420;2022-12-18T01:30:48;101465.63;;;-1.50;71.76
48964;BME280;34776;48.180;16.420;2022-12-18T01:33:14;101474.31;;;-1.51;71.83
48964;BME280;34776;48.180;16.420;2022-12-18T01:35:43;101475.06;;;-1.55;72.01
48964;BME280;34776;48.180;16.420;2022-12-18T01:38:08;101479.38;;;-1.57;72.05
48964;BME280;34776;48.180;16.420;2022-12-18T01:40:34;101482.75;;;-1.61;72.21
48964;BME280;34776;48.180;16.420;2022-12-18T01:42:59;101480.09;;;-1.63;72.15
48964;BME280;34776;48.180;16.420;2022-12-18T01:45:27;101475.69;;;-1.65;72.33
48964;BME280;34776;48.180;16.420;2022-12-18T01:48:06;101482.59;;;-1.67;72.27
48964;BME280;34776;48.180;16.420;2022-12-18T01:50:37;101476.44;;;-1.69;72.39
48964;BME280;34776;48.180;16.420;2022-12-18T01:53:19;101483.31;;;-1.73;72.38
48964;BME280;34776;48.180;16.420;2022-12-18T01:55:51;101479.72;;;-1.78;72.68
48964;BME280;34776;48.180;16.420;2022-12-18T01:58:19;101485.75;;;-1.79;72.62
48964;BME280;34776;48.180;16.420;2022-12-18T02:00:47;101483.94;;;-1.81;72.60
48964;BME280;34776;48.180;16.420;2022-12-18T02:03:13;101482.09;;;-1.86;72.77
48964;BME280;34776;48.180;16.420;2022-12-18T02:08:21;101486.34;;;-1.89;72.88
48964;BME280;34776;48.180;16.420;2022-12-18T02:10:54;101493.28;;;-1.90;73.10
48964;BME280;34776;48.180;16.420;2022-12-18T02:16:13;101499.25;;;-1.94;72.87
48964;BME280;34776;48.180;16.420;2022-12-18T02:18:46;101501.03;;;-1.93;73.07
48964;BME280;34776;48.180;16.420;2022-12-18T02:26:50;101502.56;;;-2.01;73.49
48964;BME280;34776;48.180;16.420;2022-12-18T02:29:20;101503.53;;;-1.97;73.32
48964;BME280;34776;48.180;16.420;2022-12-18T02:31:54;101517.31;;;-2.00;73.48
48964;BME280;34776;48.180;16.420;2022-12-18T02:34:23;101519.00;;;-2.02;73.31
48964;BME280;34776;48.180;16.420;2022-12-18T02:36:53;101511.13;;;-2.05;73.63
48964;BME280;34776;48.180;16.420;2022-12-18T02:39:21;101511.94;;;-2.06;73.75
48964;BME280;34776;48.180;16.420;2022-12-18T02:41:47;101511.94;;;-2.06;73.68
48964;BME280;34776;48.180;16.420;2022-12-18T02:44:13;101512.75;;;-2.09;73.60
48964;BME280;34776;48.180;16.420;2022-12-18T02:46:41;101516.97;;;-2.12;73.79
48964;BME280;34776;48.180;16.420;2022-12-18T02:52:19;101522.94;;;-2.16;74.00
48964;BME280;34776;48.180;16.420;2022-12-18T02:57:43;101526.41;;;-2.17;74.02
48964;BME280;34776;48.180;16.420;2022-12-18T03:00:16;101540.25;;;-2.18;74.02
48964;BME280;34776;48.180;16.420;2022-12-18T03:08:06;101538.41;;;-2.22;73.92
48964;BME280;34776;48.180;16.420;2022-12-18T03:10:49;101540.16;;;-2.21;74.01
48964;BME280;34776;48.180;16.420;2022-12-18T03:13:23;101550.59;;;-2.21;74.18
48964;BME280;34776;48.180;16.420;2022-12-18T03:15:55;101550.63;;;-2.20;74.23
48964;BME280;34776;48.180;16.420;2022-12-18T03:18:30;101539.25;;;-2.23;74.11
48964;BME280;34776;48.180;16.420;2022-12-18T03:21:00;101543.63;;;-2.22;74.20
48964;BME280;34776;48.180;16.420;2022-12-18T03:23:33;101535.75;;;-2.24;74.01
48964;BME280;34776;48.180;16.420;2022-12-18T03:26:05;101545.25;;;-2.26;74.19
48964;BME280;34776;48.180;16.420;2022-12-18T03:28:35;101541.78;;;-2.27;74.23
48964;BME280;34776;48.180;16.420;2022-12-18T03:31:05;101543.53;;;-2.26;74.36
48964;BME280;34776;48.180;16.420;2022-12-18T03:33:38;101540.84;;;-2.29;74.19
48964;BME280;34776;48.180;16.420;2022-12-18T03:36:06;101550.41;;;-2.28;74.23
48964;BME280;34776;48.180;16.420;2022-12-18T03:38:31;101548.56;;;-2.32;74.07
48964;BME280;34776;48.180;16.420;2022-12-18T03:46:30;101552.69;;;-2.38;74.13
48964;BME280;34776;48.180;16.420;2022-12-18T03:49:09;101558.78;;;-2.38;74.13
48964;BME280;34776;48.180;16.420;2022-12-18T03:51:44;101553.56;;;-2.38;74.04
48964;BME280;34776;48.180;16.420;2022-12-18T03:54:14;101552.69;;;-2.38;74.34
48964;BME280;34776;48.180;16.420;2022-12-18T03:56:45;101556.97;;;-2.40;74.37
48964;BME280;34776;48.180;16.420;2022-12-18T03:59:13;101561.31;;;-2.41;74.36
48964;BME280;34776;48.180;16.420;2022-12-18T04:01:45;101563.06;;;-2.40;74.50
48964;BME280;34776;48.180;16.420;2022-12-18T04:04:13;101570.88;;;-2.40;74.44
48964;BME280;34776;48.180;16.420;2022-12-18T04:06:40;101565.66;;;-2.41;74.46
48964;BME280;34776;48.180;16.420;2022-12-18T04:09:06;101579.41;;;-2.44;74.38
48964;BME280;34776;48.180;16.420;2022-12-18T04:11:32;101568.94;;;-2.47;74.43
48964;BME280;34776;48.180;16.420;2022-12-18T04:13:57;101564.47;;;-2.51;74.38
48964;BME280;34776;48.180;16.420;2022-12-18T04:16:26;101573.94;;;-2.53;74.40
48964;BME280;34776;48.180;16.420;2022-12-18T04:18:52;101572.16;;;-2.54;74.53
48964;BME280;34776;48.180;16.420;2022-12-18T04:21:17;101574.78;;;-2.54;74.54
48964;BME280;34776;48.180;16.420;2022-12-18T04:23:43;101580.81;;;-2.55;74.61
48964;BME280;34776;48.180;16.420;2022-12-18T04:26:08;101579.97;;;-2.54;74.48
48964;BME280;34776;48.180;16.420;2022-12-18T04:28:34;101582.56;;;-2.54;74.43
48964;BME280;34776;48.180;16.420;2022-12-18T04:30:59;101587.78;;;-2.54;74.52
48964;BME280;34776;48.180;16.420;2022-12-18T04:33:24;101592.16;;;-2.53;74.57
48964;BME280;34776;48.180;16.420;2022-12-18T04:35:50;101602.53;;;-2.55;74.55
48964;BME280;34776;48.180;16.420;2022-12-18T04:38:15;101599.91;;;-2.55;74.55
48964;BME280;34776;48.180;16.420;2022-12-18T04:40:41;101600.78;;;-2.54;74.61
48964;BME280;34776;48.180;16.420;2022-12-18T04:43:06;101606.78;;;-2.57;74.52
48964;BME280;34776;48.180;16.420;2022-12-18T04:45:32;101602.44;;;-2.58;74.41
48964;BME280;34776;48.180;16.420;2022-12-18T04:47:59;101614.56;;;-2.58;74.53
48964;BME280;34776;48.180;16.420;2022-12-18T04:50:25;101618.94;;;-2.57;74.54
48964;BME280;34776;48.180;16.420;2022-12-18T04:52:50;101612.00;;;-2.57;74.64
48964;BME280;34776;48.180;16.420;2022-12-18T04:55:15;101620.59;;;-2.59;74.50
48964;BME280;34776;48.180;16.420;2022-12-18T04:57:41;101624.03;;;-2.60;74.40
48964;BME280;34776;48.180;16.420;2022-12-18T05:00:07;101624.00;;;-2.62;74.18
48964;BME280;34776;48.180;16.420;2022-12-18T05:02:32;101628.28;;;-2.64;74.27
48964;BME280;34776;48.180;16.420;2022-12-18T05:04:58;101635.22;;;-2.64;74.12
48964;BME280;34776;48.180;16.420;2022-12-18T05:07:24;101634.28;;;-2.67;74.30
48964;BME280;34776;48.180;16.420;2022-12-18T05:09:49;101637.69;;;-2.68;74.33
48964;BME280;34776;48.180;16.420;2022-12-18T05:12:15;101642.03;;;-2.68;74.38
48964;BME280;34776;48.180;16.420;2022-12-18T05:14:40;101649.72;;;-2.71;74.31
48964;BME280;34776;48.180;16.420;2022-12-18T05:17:06;101649.69;;;-2.73;74.41
48964;BME280;34776;48.180;16.420;2022-12-18T05:19:32;101651.34;;;-2.75;74.36
48964;BME280;34776;48.180;16.420;2022-12-18T05:21:58;101653.91;;;-2.76;74.41
48964;BME280;34776;48.180;16.420;2022-12-18T05:24:23;101648.75;;;-2.75;74.69
48964;BME280;34776;48.180;16.420;2022-12-18T05:26:48;101647.84;;;-2.75;74.79
48964;BME280;34776;48.180;16.420;2022-12-18T05:29:14;101642.69;;;-2.74;74.65
48964;BME280;34776;48.180;16.420;2022-12-18T05:31:40;101647.09;;;-2.71;74.50
48964;BME280;34776;48.180;16.420;2022-12-18T05:34:05;101648.03;;;-2.71;74.50
48964;BME280;34776;48.180;16.420;2022-12-18T05:36:31;101653.22;;;-2.71;74.59
48964;BME280;34776;48.180;16.420;2022-12-18T05:38:56;101654.97;;;-2.70;74.51
48964;BME280;34776;48.180;16.420;2022-12-18T05:41:21;101654.97;;;-2.70;74.61
48964;BME280;34776;48.180;16.420;2022-12-18T05:43:47;101658.44;;;-2.69;74.84
48964;BME280;34776;48.180;16.420;2022-12-18T05:46:15;101656.63;;;-2.72;74.56
48964;BME280;34776;48.180;16.420;2022-12-18T05:48:41;101654.78;;;-2.76;74.60
48964;BME280;34776;48.180;16.420;2022-12-18T05:51:10;101660.81;;;-2.77;74.80
48964;BME280;34776;48.180;16.420;2022-12-18T05:53:37;101653.91;;;-2.76;74.93
48964;BME280;34776;48.180;16.420;2022-12-18T05:56:04;101666.06;;;-2.75;74.82
48964;BME280;34776;48.180;16.420;2022-12-18T05:58:30;101667.78;;;-2.76;74.75
48964;BME280;34776;48.180;16.420;2022-12-18T06:00:56;101666.91;;;-2.76;74.79
48964;BME280;34776;48.180;16.420;2022-12-18T06:03:22;101671.22;;;-2.77;74.83
48964;BME280;34776;48.180;16.420;2022-12-18T06:05:48;101670.31;;;-2.77;74.88
48964;BME280;34776;48.180;16.420;2022-12-18T06:08:13;101671.16;;;-2.78;74.93
48964;BME280;34776;48.180;16.420;2022-12-18T06:10:39;101672.03;;;-2.78;74.79
48964;BME280;34776;48.180;16.420;2022-12-18T06:13:05;101683.34;;;-2.77;74.81
48964;BME280;34776;48.180;16.420;2022-12-18T06:15:31;101683.31;;;-2.79;75.01
48964;BME280;34776;48.180;16.420;2022-12-18T06:17:57;101687.66;;;-2.78;75.08
48964;BME280;34776;48.180;16.420;2022-12-18T06:20:22;101683.34;;;-2.77;75.09
48964;BME280;34776;48.180;16.420;2022-12-18T06:22:48;101685.06;;;-2.78;75.08
48964;BME280;34776;48.180;16.420;2022-12-18T06:25:13;101703.25;;;-2.78;75.03
48964;BME280;34776;48.180;16.420;2022-12-18T06:27:39;101707.66;;;-2.77;75.00
48964;BME280;34776;48.180;16.420;2022-12-18T06:30:05;101703.31;;;-2.76;75.00
48964;BME280;34776;48.180;16.420;2022-12-18T06:32:31;101710.25;;;-2.77;74.94
48964;BME280;34776;48.180;16.420;2022-12-18T06:34:57;101706.72;;;-2.79;74.76
48964;BME280;34776;48.180;16.420;2022-12-18T06:37:23;101708.38;;;-2.81;74.78
48964;BME280;34776;48.180;16.420;2022-12-18T06:39:52;101711.81;;;-2.82;75.16
48964;BME280;34776;48.180;16.420;2022-12-18T06:42:18;101716.28;;;-2.78;74.95
48964;BME280;34776;48.180;16.420;2022-12-18T06:44:43;101717.34;;;-2.73;75.12
48964;BME280;34776;48.180;16.420;2022-12-18T06:47:08;101716.53;;;-2.70;75.16
48964;BME280;34776;48.180;16.420;2022-12-18T06:49:34;101706.28;;;-2.66;75.05
48964;BME280;34776;48.180;16.420;2022-12-18T06:51:59;101717.63;;;-2.63;74.87
48964;BME280;34776;48.180;16.420;2022-12-18T06:54:25;101712.50;;;-2.60;74.89
48964;BME280;34776;48.180;16.420;2022-12-18T06:56:50;101723.03;;;-2.57;74.83
48964;BME280;34776;48.180;16.420;2022-12-18T06:59:16;101737.06;;;-2.52;74.98
48964;BME280;34776;48.180;16.420;2022-12-18T07:01:41;101744.16;;;-2.48;74.82
48964;BME280;34776;48.180;16.420;2022-12-18T07:04:06;101739.19;;;-2.40;74.75
48964;BME280;34776;48.180;16.420;2022-12-18T07:06:32;101743.75;;;-2.33;74.69
48964;BME280;34776;48.180;16.420;2022-12-18T07:08:57;101746.63;;;-2.26;74.59
48964;BME280;34776;48.180;16.420;2022-12-18T07:11:23;101744.28;;;-2.18;74.68
48964;BME280;34776;48.180;16.420;2022-12-18T07:13:49;101748.75;;;-2.12;74.43
48964;BME280;34776;48.180;16.420;2022-12-18T07:16:16;101753.34;;;-2.05;74.53
48964;BME280;34776;48.180;16.420;2022-12-18T07:18:42;101760.69;;;-1.92;74.58
48964;BME280;34776;48.180;16.420;2022-12-18T07:21:10;101756.72;;;-1.80;74.38
48964;BME280;34776;48.180;16.420;2022-12-18T07:23:36;101760.53;;;-1.69;74.48
48964;BME280;34776;48.180;16.420;2022-12-18T07:26:10;101767.88;;;-1.56;74.18
48964;BME280;34776;48.180;16.420;2022-12-18T07:28:37;101775.22;;;-1.42;73.99
48964;BME280;34776;48.180;16.420;2022-12-18T07:31:08;101783.22;;;-1.36;73.71
48964;BME280;34776;48.180;16.420;2022-12-18T07:33:34;101770.44;;;-1.27;73.70
48964;BME280;34776;48.180;16.420;2022-12-18T07:36:01;101770.88;;;-1.12;73.45
48964;BME280;34776;48.180;16.420;2022-12-18T07:38:28;101778.91;;;-1.04;73.21
48964;BME280;34776;48.180;16.420;2022-12-18T07:40:53;101783.50;;;-0.95;73.13
48964;BME280;34776;48.180;16.420;2022-12-18T07:43:19;101787.38;;;-0.81;72.99
48964;BME280;34776;48.180;16.420;2022-12-18T07:45:44;101791.13;;;-0.70;72.46
48964;BME280;34776;48.180;16.420;2022-12-18T07:48:10;101794.19;;;-0.53;72.24
48964;BME280;34776;48.180;16.420;2022-12-18T07:50:35;101794.56;;;-0.39;71.90
48964;BME280;34776;48.180;16.420;2022-12-18T07:53:00;101799.22;;;-0.26;71.76
48964;BME280;34776;48.180;16.420;2022-12-18T07:55:31;101809.06;;;-0.15;71.32
48964;BME280;34776;48.180;16.420;2022-12-18T07:57:56;101815.31;;;-0.09;71.07
48964;BME280;34776;48.180;16.420;2022-12-18T08:00:22;101819.13;;;0.04;71.03
48964;BME280;34776;48.180;16.420;2022-12-18T08:02:47;101808.06;;;0.16;70.80
48964;BME280;34776;48.180;16.420;2022-12-18T08:05:13;101822.34;;;0.30;70.09
48964;BME280;34776;48.180;16.420;2022-12-18T08:07:39;101818.28;;;0.43;69.91
48964;BME280;34776;48.180;16.420;2022-12-18T08:10:05;101814.06;;;0.50;69.61
48964;BME280;34776;48.180;16.420;2022-12-18T08:12:31;101817.84;;;0.63;69.65
48964;BME280;34776;48.180;16.420;2022-12-18T08:14:57;101822.50;;;0.76;69.20
48964;BME280;34776;48.180;16.420;2022-12-18T08:17:22;101817.44;;;0.85;68.83
48964;BME280;34776;48.180;16.420;2022-12-18T08:19:47;101823.75;;;0.95;68.22
48964;BME280;34776;48.180;16.420;2022-12-18T08:22:13;101827.31;;;0.98;68.23
48964;BME280;34776;48.180;16.420;2022-12-18T08:24:38;101827.34;;;1.00;67.80
48964;BME280;34776;48.180;16.420;2022-12-18T08:27:04;101828.09;;;0.94;67.89
48964;BME280;34776;48.180;16.420;2022-12-18T08:29:29;101819.53;;;1.01;67.93
48964;BME280;34776;48.180;16.420;2022-12-18T08:31:55;101818.06;;;1.16;68.02
48964;BME280;34776;48.180;16.420;2022-12-18T08:34:21;101819.31;;;1.36;67.32
48964;BME280;34776;48.180;16.420;2022-12-18T08:36:46;101815.03;;;1.40;67.03
48964;BME280;34776;48.180;16.420;2022-12-18T08:39:11;101820.53;;;1.54;67.01
48964;BME280;34776;48.180;16.420;2022-12-18T08:41:36;101822.53;;;1.69;66.63
48964;BME280;34776;48.180;16.420;2022-12-18T08:44:02;101819.03;;;1.70;65.79
48964;BME280;34776;48.180;16.420;2022-12-18T08:46:46;101832.25;;;1.74;65.92
48964;BME280;34776;48.180;16.420;2022-12-18T08:49:11;101832.25;;;1.76;65.82
48964;BME280;34776;48.180;16.420;2022-12-18T08:51:37;101825.94;;;1.65;65.56
48964;BME280;34776;48.180;16.420;2022-12-18T08:54:03;101826.00;;;1.66;66.05
48964;BME280;34776;48.180;16.420;2022-12-18T08:56:29;101840.13;;;1.74;65.72
48964;BME280;34776;48.180;16.420;2022-12-18T08:58:55;101844.44;;;1.74;65.26
48964;BME280;34776;48.180;16.420;2022-12-18T09:01:20;101840.75;;;1.62;65.16
48964;BME280;34776;48.180;16.420;2022-12-18T09:03:47;101843.31;;;1.58;65.21
48964;BME280;34776;48.180;16.420;2022-12-18T09:06:20;101839.00;;;1.63;65.20
48964;BME280;34776;48.180;16.420;2022-12-18T09:08:46;101843.59;;;1.76;65.06
48964;BME280;34776;48.180;16.420;2022-12-18T09:11:15;101835.22;;;1.96;64.88
48964;BME280;34776;48.180;16.420;2022-12-18T09:13:44;101845.00;;;2.06;64.55
48964;BME280;34776;48.180;16.420;2022-12-18T09:16:09;101842.59;;;2.18;64.38
48964;BME280;34776;48.180;16.420;2022-12-18T09:18:34;101845.56;;;2.43;63.96
48964;BME280;34776;48.180;16.420;2022-12-18T09:21:07;101860.09;;;2.21;62.98
48964;BME280;34776;48.180;16.420;2022-12-18T09:23:32;101851.16;;;2.08;63.71
48964;BME280;34776;48.180;16.420;2022-12-18T09:25:59;101849.25;;;1.98;63.78
48964;BME280;34776;48.180;16.420;2022-12-18T09:28:24;101853.53;;;1.94;63.99
48964;BME280;34776;48.180;16.420;2022-12-18T09:30:50;101843.78;;;1.86;63.81
48964;BME280;34776;48.180;16.420;2022-12-18T09:33:16;101850.09;;;1.95;63.73
48964;BME280;34776;48.180;16.420;2022-12-18T09:35:43;101851.06;;;2.02;63.40
48964;BME280;34776;48.180;16.420;2022-12-18T09:38:12;101851.06;;;2.02;62.90
48964;BME280;34776;48.180;16.420;2022-12-18T09:40:43;101848.56;;;2.11;62.90
48964;BME280;34776;48.180;16.420;2022-12-18T09:43:17;101845.84;;;2.05;62.78
48964;BME280;34776;48.180;16.420;2022-12-18T09:45:47;101836.13;;;1.99;62.38
48964;BME280;34776;48.180;16.420;2022-12-18T09:48:22;101846.50;;;1.92;62.50
48964;BME280;34776;48.180;16.420;2022-12-18T09:50:50;101843.72;;;1.82;62.63
48964;BME280;34776;48.180;16.420;2022-12-18T09:53:22;101840.16;;;1.77;62.67
48964;BME280;34776;48.180;16.420;2022-12-18T09:55:50;101834.75;;;1.68;62.65
48964;BME280;34776;48.180;16.420;2022-12-18T10:00:57;101837.06;;;1.51;62.98
48964;BME280;34776;48.180;16.420;2022-12-18T10:03:22;101826.41;;;1.42;62.67
48964;BME280;34776;48.180;16.420;2022-12-18T10:06:08;101827.28;;;1.42;62.71
48964;BME280;34776;48.180;16.420;2022-12-18T10:12:04;101824.69;;;1.44;62.19
48964;BME280;34776;48.180;16.420;2022-12-18T10:14:56;101825.53;;;1.41;62.06
48964;BME280;34776;48.180;16.420;2022-12-18T10:17:51;101820.22;;;1.37;62.15
48964;BME280;34776;48.180;16.420;2022-12-18T10:20:32;101825.53;;;1.41;62.69
48964;BME280;34776;48.180;16.420;2022-12-18T10:26:06;101824.97;;;1.58;62.60
48964;BME280;34776;48.180;16.420;2022-12-18T10:28:35;101820.63;;;1.60;62.56
48964;BME280;34776;48.180;16.420;2022-12-18T10:31:01;101820.72;;;1.65;62.19
48964;BME280;34776;48.180;16.420;2022-12-18T10:33:29;101823.25;;;1.61;62.24
48964;BME280;34776;48.180;16.420;2022-12-18T10:35:57;101824.06;;;1.56;61.92
48964;BME280;34776;48.180;16.420;2022-12-18T10:38:31;101816.81;;;1.42;61.92
48964;BME280;34776;48.180;16.420;2022-12-18T10:41:05;101820.13;;;1.34;62.10
48964;BME280;34776;48.180;16.420;2022-12-18T10:46:11;101814.94;;;1.35;62.40
48964;BME280;34776;48.180;16.420;2022-12-18T10:51:23;101818.63;;;1.47;62.15
48964;BME280;34776;48.180;16.420;2022-12-18T10:54:15;101810.88;;;1.51;61.94
48964;BME280;34776;48.180;16.420;2022-12-18T10:56:41;101817.16;;;1.61;62.31
48964;BME280;34776;48.180;16.420;2022-12-18T10:59:09;101803.13;;;1.59;62.15
48964;BME280;34776;48.180;16.420;2022-12-18T11:01:55;101805.94;;;1.70;62.37
48964;BME280;34776;48.180;16.420;2022-12-18T11:04:26;101797.44;;;1.83;61.85
48964;BME280;34776;48.180;16.420;2022-12-18T11:07:04;101808.88;;;1.88;61.78
48964;BME280;34776;48.180;16.420;2022-12-18T11:09:32;101807.28;;;1.98;61.73
48964;BME280;34776;48.180;16.420;2022-12-18T11:11:59;101806.31;;;1.91;61.56
48964;BME280;34776;48.180;16.420;2022-12-18T11:14:34;101798.25;;;1.80;61.62
48964;BME280;34776;48.180;16.420;2022-12-18T11:17:30;101792.19;;;1.85;61.15
48964;BME280;34776;48.180;16.420;2022-12-18T11:20:01;101787.69;;;1.76;61.47
48964;BME280;34776;48.180;16.420;2022-12-18T11:22:33;101792.97;;;1.77;61.72
48964;BME280;34776;48.180;16.420;2022-12-18T11:27:37;101806.47;;;2.02;61.36
48964;BME280;34776;48.180;16.420;2022-12-18T11:32:51;101798.19;;;1.74;61.25
48964;BME280;34776;48.180;16.420;2022-12-18T11:37:55;101799.56;;;1.55;61.68
48964;BME280;34776;48.180;16.420;2022-12-18T11:40:42;101796.19;;;1.61;60.57
48964;BME280;34776;48.180;16.420;2022-12-18T11:43:21;101794.56;;;1.69;61.85
48964;BME280;34776;48.180;16.420;2022-12-18T11:45:59;101792.94;;;1.74;61.71
48964;BME280;34776;48.180;16.420;2022-12-18T11:50:56;101788.97;;;1.48;61.97
48964;BME280;34776;48.180;16.420;2022-12-18T11:53:24;101787.03;;;1.37;62.37
48964;BME280;34776;48.180;16.420;2022-12-18T12:11:48;101778.91;;;1.22;62.76
48964;BME280;34776;48.180;16.420;2022-12-18T12:20:02;101773.94;;;1.37;62.48
48964;BME280;34776;48.180;16.420;2022-12-18T12:28:16;101764.78;;;1.14;63.07
48964;BME280;34776;48.180;16.420;2022-12-18T12:30:59;101774.22;;;1.06;63.04
48964;BME280;34776;48.180;16.420;2022-12-18T12:34:18;101779.34;;;0.99;63.12
48964;BME280;34776;48.180;16.420;2022-12-18T12:39:32;101772.56;;;0.65;63.58
48964;BME280;34776;48.180;16.420;2022-12-18T12:41:59;101766.25;;;0.55;64.09
48964;BME280;34776;48.180;16.420;2022-12-18T12:44:50;101754.97;;;0.58;64.30
48964;BME280;34776;48.180;16.420;2022-12-18T12:47:21;101755.75;;;0.54;64.19
48964;BME280;34776;48.180;16.420;2022-12-18T12:49:49;101759.31;;;0.57;64.39
48964;BME280;34776;48.180;16.420;2022-12-18T12:54:43;101755.66;;;0.49;64.21
48964;BME280;34776;48.180;16.420;2022-12-18T12:57:15;101758.03;;;0.38;64.49
48964;BME280;34776;48.180;16.420;2022-12-18T13:00:01;101758.66;;;0.27;64.77
48964;BME280;34776;48.180;16.420;2022-12-18T13:02:30;101774.22;;;0.22;64.51
48964;BME280;34776;48.180;16.420;2022-12-18T13:05:09;101772.16;;;0.07;65.24
48964;BME280;34776;48.180;16.420;2022-12-18T13:07:44;101767.75;;;0.05;65.42
48964;BME280;34776;48.180;16.420;2022-12-18T13:18:11;101778.53;;;0.20;65.62
48964;BME280;34776;48.180;16.420;2022-12-18T13:20:40;101788.91;;;0.15;65.67
48964;BME280;34776;48.180;16.420;2022-12-18T13:25:48;101796.13;;;0.26;66.04
48964;BME280;34776;48.180;16.420;2022-12-18T13:30:48;101796.66;;;0.12;65.92
48964;BME280;34776;48.180;16.420;2022-12-18T13:35:42;101794.16;;;-0.19;66.67
48964;BME280;34776;48.180;16.420;2022-12-18T13:43:48;101796.19;;;-0.08;66.89
48964;BME280;34776;48.180;16.420;2022-12-18T13:46:24;101794.41;;;-0.10;67.24
48964;BME280;34776;48.180;16.420;2022-12-18T13:51:42;101794.25;;;-0.15;67.58
48964;BME280;34776;48.180;16.420;2022-12-18T13:54:25;101801.16;;;-0.18;67.71
48964;BME280;34776;48.180;16.420;2022-12-18T13:56:54;101804.72;;;-0.15;67.83
48964;BME280;34776;48.180;16.420;2022-12-18T13:59:39;101800.41;;;-0.14;67.91
48964;BME280;34776;48.180;16.420;2022-12-18T14:02:14;101802.09;;;-0.16;67.81
48964;BME280;34776;48.180;16.420;2022-12-18T14:04:40;101810.69;;;-0.21;67.84
48964;BME280;34776;48.180;16.420;2022-12-18T14:07:10;101813.91;;;-0.31;67.98
48964;BME280;34776;48.180;16.420;2022-12-18T14:09:42;101816.28;;;-0.40;68.33
48964;BME280;34776;48.180;16.420;2022-12-18T14:12:35;101812.75;;;-0.42;68.45
48964;BME280;34776;48.180;16.420;2022-12-18T14:20:35;101820.06;;;-0.62;69.25
48964;BME280;34776;48.180;16.420;2022-12-18T14:23:00;101817.34;;;-0.67;69.46
48964;BME280;34776;48.180;16.420;2022-12-18T14:25:28;101820.03;;;-0.64;69.56
48964;BME280;34776;48.180;16.420;2022-12-18T14:28:15;101828.13;;;-0.54;69.82
48964;BME280;34776;48.180;16.420;2022-12-18T14:30:43;101832.69;;;-0.46;69.29
48964;BME280;34776;48.180;16.420;2022-12-18T14:33:23;101837.03;;;-0.46;69.30
48964;BME280;34776;48.180;16.420;2022-12-18T14:35:58;101835.19;;;-0.50;69.51
48964;BME280;34776;48.180;16.420;2022-12-18T14:41:00;101839.59;;;-0.48;69.81
48964;BME280;34776;48.180;16.420;2022-12-18T14:43:28;101833.41;;;-0.51;69.83
48964;BME280;34776;48.180;16.420;2022-12-18T14:45:55;101833.19;;;-0.60;70.22
48964;BME280;34776;48.180;16.420;2022-12-18T14:48:38;101841.84;;;-0.62;70.26